Berkley, Michigan
Current Conditions -  °F | °C
As of 8:35 PM on Wednesday 26 Nov 2014 (Local Time) from KVLL Reporting Station
Overcast Overcast  
Wind Chill: -2°   Ceiling: 4500
Heat Index:   Visibility: 10mi
Dew Point: -4°   Wind: 6mph
Humidity: 70%   Direction: 360°N
Pressure: 30.09"   Gusts: NA
Location:  42.5°N, 83.18°W
Report Text: KVLL 270135Z AUTO 36005KT 10SM SCT036 OVC045 01/M04 A3009 RMK AO2 T00081042
Loading
Personal Weather Stations






























Interactive Weather Map New forecast layout! Learn more

10-Day Weather Forecast

Advertisements
Track Severe Weather on mobile